Terminal Aerodrome Forecast
Issued by NWS Denver/Boulder, CO

Home | Current Version | Previous Version | Text Only | Print | Product List | Glossary On
Versions: 1 2 3 4 5 6 7 8 9 10 11 12 13 14 15 16 17 18 19 20 21 22 23 24 25 26 27 28 29 30 31 32 33 34 35 36 37 38 39 40 41 42 43 44 45 46 47 48 49 50
000
FTUS45 KBOU 260302 AAC
TAFDEN
TAF AMD
KDEN 260302Z 2603/2706 02009KT P6SM VCSH SCT060 BKN090
      TEMPO 2605/2608 6SM -SHRA OVC060
     FM260800 15008KT P6SM VCSH SCT015 OVC030
      TEMPO 2608/2612 3SM BR SCT008 BKN015
     FM261200 11012KT 3SM -SHRA BR SCT005 OVC008
      TEMPO 2612/2616 1SM -SHRA BR OVC005
     FM261800 08014KT 3SM -SHRA BR SCT008 OVC012 PROB30 2620/2624
      5SM -TSRA BKN008CB
     FM270000 08010KT 5SM -SHRA BR SCT008 OVC012
      TEMPO 2700/2704 3SM -SHRA BR BKN008=

USA.gov is the U.S. government's official web portal to all federal, state and local government web resources and services.